Time;durP1;ratioP1;P1;durP2;ratioP2;P2;SDS_P1;SDS_P2;PMS_P1;PMS_P2;Temp;Humidity;BMP_temperature;BMP_pressure;BME280_temperature;BME280_humidity;BME280_pressure;Samples;Min_cycle;Max_cycle;Signal;HPM_P1;HPM_P2
2023/08/10 00:00:08;;;;;;;;;;;13.90;99.90;;;;;;5023726;28;19972;-75
2023/08/10 00:02:33;;;;;;;;;;;13.90;99.90;;;;;;5040153;28;19968;-75
2023/08/10 00:04:59;;;;;;;;;;;13.90;99.90;;;;;;5039955;28;19929;-75
2023/08/10 00:07:24;;;;;;;;;;;13.90;99.90;;;;;;5039271;28;19925;-75
2023/08/10 00:09:50;;;;;;;;;;;13.90;99.90;;;;;;5039617;28;19925;-75
2023/08/10 00:12:15;;;;;;;;;;;14.00;99.90;;;;;;5039808;28;19931;-75
2023/08/10 00:14:41;;;;;;;;;;;14.00;99.90;;;;;;5039213;28;19929;-75
2023/08/10 00:17:07;;;;;;;;;;;13.90;99.90;;;;;;5036420;28;19925;-75
2023/08/10 00:19:32;;;;;;;;;;;13.90;99.90;;;;;;5057982;28;19925;-75
2023/08/10 00:21:58;;;;;;;;;;;13.90;99.90;;;;;;5067878;28;19947;-75
2023/08/10 00:24:23;;;;;;;;;;;13.90;99.90;;;;;;5055476;28;20466;-75
2023/08/10 00:26:49;;;;;;;;;;;13.90;99.90;;;;;;5055799;28;19925;-75
2023/08/10 00:29:14;;;;;;;;;;;13.90;99.90;;;;;;5039328;28;19979;-75
2023/08/10 00:31:40;;;;;;;;;;;13.80;99.90;;;;;;5039000;28;20484;-75
2023/08/10 00:34:05;;;;;;;;;;;13.80;99.90;;;;;;5039455;28;20082;-75
2023/08/10 00:36:31;;;;;;;;;;;13.80;99.90;;;;;;5049603;28;19925;-75
2023/08/10 00:38:57;;;;;;;;;;;13.80;99.90;;;;;;5039277;28;19929;-75
2023/08/10 00:41:23;;;;;;;;;;;13.80;99.90;;;;;;5038437;28;19949;-75
2023/08/10 00:43:48;;;;;;;;;;;13.80;99.90;;;;;;5039316;28;19944;-75
2023/08/10 00:46:14;;;;;;;;;;;13.80;99.90;;;;;;5038640;28;19929;-75
2023/08/10 00:48:39;;;;;;;;;;;13.80;99.90;;;;;;5038506;28;20024;-75
2023/08/10 00:51:05;;;;;;;;;;;13.80;99.90;;;;;;5038413;28;20023;-75
2023/08/10 00:53:31;;;;;;;;;;;13.80;99.90;;;;;;5032346;28;19925;-75
2023/08/10 00:55:56;;;;;;;;;;;13.80;99.90;;;;;;5043929;28;19983;-75
2023/08/10 00:58:22;;;;;;;;;;;13.80;99.90;;;;;;5038183;28;19955;-75
2023/08/10 01:00:48;;;;;;;;;;;13.80;99.90;;;;;;5038850;28;19988;-74
2023/08/10 01:03:15;;;;;;;;;;;13.80;99.90;;;;;;5037860;28;19971;-75
2023/08/10 01:05:44;;;;;;;;;;;13.80;99.90;;;;;;5054926;28;19925;-75
2023/08/10 01:08:18;;;;;;;;;;;13.80;99.90;;;;;;5038599;28;19925;-75
2023/08/10 01:10:44;;;;;;;;;;;13.80;99.90;;;;;;5058280;28;19952;-75
2023/08/10 01:13:13;;;;;;;;;;;13.80;99.90;;;;;;5038868;28;19925;-75
2023/08/10 01:15:45;;;;;;;;;;;13.80;99.90;;;;;;5037521;28;19925;-75
2023/08/10 01:18:14;;;;;;;;;;;13.80;99.90;;;;;;5038476;28;19936;-75
2023/08/10 01:20:41;;;;;;;;;;;13.80;99.90;;;;;;5033253;28;19925;-75
2023/08/10 01:23:14;;;;;;;;;;;13.80;99.90;;;;;;5030468;28;19929;-75
2023/08/10 01:25:41;;;;;;;;;;;13.80;99.90;;;;;;5038226;28;20388;-74
2023/08/10 01:28:08;;;;;;;;;;;13.80;99.90;;;;;;5037454;28;19929;-75
2023/08/10 01:30:34;;;;;;;;;;;13.80;99.90;;;;;;5038282;28;19925;-74
2023/08/10 01:32:59;;;;;;;;;;;13.80;99.90;;;;;;5037628;28;19925;-75
2023/08/10 01:35:25;;;;;;;;;;;13.80;99.90;;;;;;5038006;28;20285;-75
2023/08/10 01:37:51;;;;;;;;;;;13.80;99.90;;;;;;5038250;28;20335;-75
2023/08/10 01:40:17;;;;;;;;;;;13.80;99.90;;;;;;5037741;28;19951;-76
2023/08/10 01:42:43;;;;;;;;;;;13.80;99.90;;;;;;5023572;28;19926;-75
2023/08/10 01:45:09;;;;;;;;;;;13.80;99.90;;;;;;5037519;28;19948;-74
2023/08/10 01:47:37;;;;;;;;;;;13.70;99.90;;;;;;5021445;28;19968;-74
2023/08/10 01:50:04;;;;;;;;;;;13.70;99.90;;;;;;5037280;28;19987;-75
2023/08/10 01:52:34;;;;;;;;;;;13.60;99.90;;;;;;5021211;28;19929;-75
2023/08/10 01:55:00;;;;;;;;;;;13.50;99.90;;;;;;5037717;28;19925;-75
2023/08/10 01:57:28;;;;;;;;;;;13.50;99.90;;;;;;5053851;28;19933;-75
2023/08/10 01:59:54;;;;;;;;;;;13.50;99.90;;;;;;5038002;28;19925;-75
2023/08/10 02:02:19;;;;;;;;;;;13.50;99.90;;;;;;5036894;28;19968;-74
2023/08/10 02:04:45;;;;;;;;;;;13.40;99.90;;;;;;5036406;28;19925;-75
2023/08/10 02:07:11;;;;;;;;;;;13.40;99.90;;;;;;5037014;28;19926;-75
2023/08/10 02:09:37;;;;;;;;;;;13.40;99.90;;;;;;5054017;28;19929;-75
2023/08/10 02:12:03;;;;;;;;;;;13.50;99.90;;;;;;5037665;28;19951;-75
2023/08/10 02:14:29;;;;;;;;;;;13.50;99.90;;;;;;5040261;28;19927;-75
2023/08/10 02:16:54;;;;;;;;;;;13.50;99.90;;;;;;5039400;28;19925;-75
2023/08/10 02:19:20;;;;;;;;;;;13.50;99.90;;;;;;5037034;28;20353;-75
2023/08/10 02:21:46;;;;;;;;;;;13.50;99.90;;;;;;5040034;28;19925;-74
2023/08/10 02:24:11;;;;;;;;;;;13.50;99.90;;;;;;5040889;28;19925;-75
2023/08/10 02:26:37;;;;;;;;;;;13.50;99.90;;;;;;5058379;28;19929;-75
2023/08/10 02:29:02;;;;;;;;;;;13.50;99.90;;;;;;5041113;28;20053;-75
2023/08/10 02:31:28;;;;;;;;;;;13.40;99.90;;;;;;5040981;28;19933;-75
2023/08/10 02:33:54;;;;;;;;;;;13.40;99.90;;;;;;5041796;28;19925;-75
2023/08/10 02:36:19;;;;;;;;;;;13.40;99.90;;;;;;5040632;28;20274;-75
2023/08/10 02:38:45;;;;;;;;;;;13.40;99.90;;;;;;5058245;28;19940;-75
2023/08/10 02:41:11;;;;;;;;;;;13.40;99.90;;;;;;5040832;28;20380;-75
2023/08/10 02:43:36;;;;;;;;;;;13.40;99.90;;;;;;5041226;28;20017;-75
2023/08/10 02:46:02;;;;;;;;;;;13.40;99.90;;;;;;5040899;28;20360;-75
2023/08/10 02:48:28;;;;;;;;;;;13.40;99.90;;;;;;5041086;28;19926;-75
2023/08/10 02:50:54;;;;;;;;;;;13.40;99.90;;;;;;5040869;28;20086;-75
2023/08/10 02:53:20;;;;;;;;;;;13.40;99.90;;;;;;5040626;28;19929;-75
2023/08/10 02:55:46;;;;;;;;;;;13.40;99.90;;;;;;5074490;28;19929;-75
2023/08/10 02:58:11;;;;;;;;;;;13.40;99.90;;;;;;5057141;28;19929;-75
2023/08/10 03:00:37;;;;;;;;;;;13.40;99.90;;;;;;5040767;28;19925;-75
2023/08/10 03:03:04;;;;;;;;;;;13.40;99.90;;;;;;5040186;28;19925;-75
2023/08/10 03:05:29;;;;;;;;;;;13.40;99.90;;;;;;5040665;28;20474;-75
2023/08/10 03:07:55;;;;;;;;;;;13.50;99.90;;;;;;5040784;28;19925;-75
2023/08/10 03:10:21;;;;;;;;;;;13.40;99.90;;;;;;5023911;28;19996;-74
2023/08/10 03:12:46;;;;;;;;;;;13.50;99.90;;;;;;5042206;28;20002;-75
2023/08/10 03:15:12;;;;;;;;;;;13.50;99.90;;;;;;5040162;28;20039;-75
2023/08/10 03:17:39;;;;;;;;;;;13.50;99.90;;;;;;5057499;28;19937;-75
2023/08/10 03:20:12;;;;;;;;;;;13.50;99.90;;;;;;5039978;28;19924;-75
2023/08/10 03:22:38;;;;;;;;;;;13.50;99.90;;;;;;5040492;28;19976;-75
2023/08/10 03:25:04;;;;;;;;;;;13.50;99.90;;;;;;5040654;28;19975;-75
2023/08/10 03:27:30;;;;;;;;;;;13.50;99.90;;;;;;5040363;28;19929;-75
2023/08/10 03:29:55;;;;;;;;;;;13.50;99.90;;;;;;5040090;28;19925;-75
2023/08/10 03:32:21;;;;;;;;;;;13.60;99.90;;;;;;5038237;28;19926;-75
2023/08/10 03:34:46;;;;;;;;;;;13.60;99.90;;;;;;5040897;28;19929;-75
2023/08/10 03:37:12;;;;;;;;;;;13.60;99.90;;;;;;5039983;28;19925;-75
2023/08/10 03:39:38;;;;;;;;;;;13.60;99.90;;;;;;5039949;28;20463;-75
2023/08/10 03:42:03;;;;;;;;;;;13.60;99.90;;;;;;5056590;28;19944;-74
2023/08/10 03:44:29;;;;;;;;;;;13.60;99.90;;;;;;5040026;28;19940;-75
2023/08/10 03:46:54;;;;;;;;;;;13.60;99.90;;;;;;5040250;28;19932;-75
2023/08/10 03:49:22;;;;;;;;;;;13.60;99.90;;;;;;5039559;28;19929;-75
2023/08/10 03:51:48;;;;;;;;;;;13.60;99.90;;;;;;5039907;28;19925;-75
2023/08/10 03:54:14;;;;;;;;;;;13.60;99.90;;;;;;5039182;28;19928;-75
2023/08/10 03:56:39;;;;;;;;;;;13.70;99.90;;;;;;5040222;28;19925;-75
2023/08/10 03:59:05;;;;;;;;;;;13.60;99.90;;;;;;5039906;28;19990;-74
2023/08/10 04:01:30;;;;;;;;;;;13.70;99.90;;;;;;5039683;28;19925;-75
2023/08/10 04:03:56;;;;;;;;;;;13.70;99.90;;;;;;5025803;28;20309;-75
2023/08/10 04:06:22;;;;;;;;;;;13.70;99.90;;;;;;5039258;28;19925;-75
2023/08/10 04:08:48;;;;;;;;;;;13.70;99.90;;;;;;5040043;28;19966;-75
2023/08/10 04:11:14;;;;;;;;;;;13.70;99.90;;;;;;5055378;28;19981;-75
2023/08/10 04:13:40;;;;;;;;;;;13.70;99.90;;;;;;5039515;28;19933;-75
2023/08/10 04:16:06;;;;;;;;;;;13.70;99.90;;;;;;5039332;28;19925;-75
2023/08/10 04:18:31;;;;;;;;;;;13.70;99.90;;;;;;5039381;28;20414;-75
2023/08/10 04:20:57;;;;;;;;;;;13.70;99.90;;;;;;5039492;28;19929;-75
2023/08/10 04:23:23;;;;;;;;;;;13.70;99.90;;;;;;5038933;28;20471;-75
2023/08/10 04:25:49;;;;;;;;;;;13.70;99.90;;;;;;5045451;28;19925;-75
2023/08/10 04:28:15;;;;;;;;;;;13.70;99.90;;;;;;5038708;28;19936;-75
2023/08/10 04:30:41;;;;;;;;;;;13.80;99.90;;;;;;5039513;28;19925;-75
2023/08/10 04:33:07;;;;;;;;;;;13.80;99.90;;;;;;5038704;28;19929;-75
2023/08/10 04:35:33;;;;;;;;;;;13.80;99.90;;;;;;5039019;28;19940;-75
2023/08/10 04:37:58;;;;;;;;;;;13.80;99.90;;;;;;5039218;28;19925;-75
2023/08/10 04:40:24;;;;;;;;;;;13.80;99.90;;;;;;5038895;28;19925;-75
2023/08/10 04:42:50;;;;;;;;;;;13.80;99.90;;;;;;5039017;28;19925;-75
2023/08/10 04:45:16;;;;;;;;;;;13.80;99.90;;;;;;5038294;28;19968;-75
2023/08/10 04:47:42;;;;;;;;;;;13.90;99.90;;;;;;5039168;28;20380;-75
2023/08/10 04:50:08;;;;;;;;;;;13.90;99.90;;;;;;5037982;28;19994;-74
2023/08/10 04:52:34;;;;;;;;;;;13.90;99.90;;;;;;5038384;28;19925;-75
2023/08/10 04:54:59;;;;;;;;;;;13.90;99.90;;;;;;5038847;28;19932;-75
2023/08/10 04:57:25;;;;;;;;;;;14.00;99.90;;;;;;5038399;28;19964;-75
2023/08/10 04:59:50;;;;;;;;;;;14.00;99.90;;;;;;5022481;28;19929;-75
2023/08/10 05:02:16;;;;;;;;;;;14.00;99.90;;;;;;5037994;28;19987;-74
2023/08/10 05:04:41;;;;;;;;;;;14.10;99.90;;;;;;5039262;28;19929;-75
2023/08/10 05:07:07;;;;;;;;;;;14.10;99.90;;;;;;5037698;28;20442;-75
2023/08/10 05:09:32;;;;;;;;;;;14.20;99.90;;;;;;5038592;28;19997;-75
2023/08/10 05:11:58;;;;;;;;;;;14.20;99.90;;;;;;5036348;28;19929;-75
2023/08/10 05:14:24;;;;;;;;;;;14.20;99.90;;;;;;5036242;28;19932;-75
2023/08/10 05:16:49;;;;;;;;;;;14.20;99.90;;;;;;5038677;28;19932;-75
2023/08/10 05:19:15;;;;;;;;;;;14.30;99.90;;;;;;5037666;28;20005;-75
2023/08/10 05:21:40;;;;;;;;;;;14.40;99.90;;;;;;5038582;28;19929;-75
2023/08/10 05:24:06;;;;;;;;;;;14.40;99.90;;;;;;5037276;28;19929;-75
2023/08/10 05:26:32;;;;;;;;;;;14.50;99.90;;;;;;5038449;28;19948;-75
2023/08/10 05:28:58;;;;;;;;;;;14.50;99.90;;;;;;5038172;28;19925;-75
2023/08/10 05:31:23;;;;;;;;;;;14.70;99.90;;;;;;5037686;28;19929;-75
2023/08/10 05:33:49;;;;;;;;;;;14.80;99.90;;;;;;5022027;28;19925;-75
2023/08/10 05:36:15;;;;;;;;;;;14.90;99.90;;;;;;5037476;28;20260;-75
2023/08/10 05:38:40;;;;;;;;;;;15.00;99.90;;;;;;5038181;28;20416;-75
2023/08/10 05:41:06;;;;;;;;;;;15.20;99.90;;;;;;5037665;28;19951;-76
2023/08/10 05:43:31;;;;;;;;;;;15.20;99.90;;;;;;5038107;28;19925;-75
2023/08/10 05:45:57;;;;;;;;;;;15.40;99.90;;;;;;5037876;28;19984;-75
2023/08/10 05:48:23;;;;;;;;;;;15.50;99.90;;;;;;5053977;28;19948;-75
2023/08/10 05:50:48;;;;;;;;;;;15.50;99.90;;;;;;5037561;28;19936;-75
2023/08/10 05:53:14;;;;;;;;;;;15.60;99.90;;;;;;5037153;28;19925;-75
2023/08/10 05:55:39;;;;;;;;;;;15.60;99.90;;;;;;5037474;28;19996;-75
2023/08/10 05:58:05;;;;;;;;;;;15.70;99.90;;;;;;5037159;28;19925;-75
2023/08/10 06:00:31;;;;;;;;;;;15.80;99.90;;;;;;5037949;28;20012;-75
2023/08/10 06:02:56;;;;;;;;;;;15.90;99.90;;;;;;5045191;28;20061;-74
2023/08/10 06:05:22;;;;;;;;;;;15.90;99.90;;;;;;5054026;28;19991;-75
2023/08/10 06:07:48;;;;;;;;;;;16.00;99.90;;;;;;5021171;28;19925;-75
2023/08/10 06:10:14;;;;;;;;;;;16.00;99.90;;;;;;5036962;28;20018;-75
2023/08/10 06:12:41;;;;;;;;;;;16.10;99.90;;;;;;5021512;28;19962;-75
2023/08/10 06:15:07;;;;;;;;;;;16.20;99.90;;;;;;5036879;28;19940;-75
2023/08/10 06:17:33;;;;;;;;;;;16.30;99.90;;;;;;5037677;28;19929;-75
2023/08/10 06:19:58;;;;;;;;;;;16.40;99.90;;;;;;5037168;28;19947;-75
2023/08/10 06:22:24;;;;;;;;;;;16.80;99.90;;;;;;5037239;28;19925;-75
2023/08/10 06:24:50;;;;;;;;;;;17.00;99.90;;;;;;5037476;28;19933;-75
2023/08/10 06:27:15;;;;;;;;;;;17.50;99.90;;;;;;5053837;28;19949;-75
2023/08/10 06:29:41;;;;;;;;;;;18.20;99.90;;;;;;5037654;28;19925;-75
2023/08/10 06:32:07;;;;;;;;;;;18.90;99.90;;;;;;5053458;28;19929;-76
2023/08/10 06:34:33;;;;;;;;;;;19.20;99.90;;;;;;5037338;28;19925;-76
2023/08/10 06:36:59;;;;;;;;;;;19.00;99.90;;;;;;5036473;28;19925;-75
2023/08/10 06:39:27;;;;;;;;;;;18.80;99.90;;;;;;5037008;28;19925;-76
2023/08/10 06:41:55;;;;;;;;;;;18.60;99.90;;;;;;5038363;28;19925;-76
2023/08/10 06:44:20;;;;;;;;;;;18.40;99.90;;;;;;5036901;28;19957;-76
2023/08/10 06:46:46;;;;;;;;;;;18.30;99.90;;;;;;5037587;28;19960;-75
2023/08/10 06:49:12;;;;;;;;;;;18.20;99.90;;;;;;5036691;28;19925;-75
2023/08/10 06:51:38;;;;;;;;;;;18.20;99.90;;;;;;5036862;28;19925;-75
2023/08/10 06:54:03;;;;;;;;;;;18.10;99.90;;;;;;5037109;28;20018;-76
2023/08/10 06:56:29;;;;;;;;;;;18.10;99.90;;;;;;5037256;28;19989;-75
2023/08/10 06:58:54;;;;;;;;;;;18.00;99.90;;;;;;5037093;28;20452;-75
2023/08/10 07:01:20;;;;;;;;;;;17.90;99.90;;;;;;5036622;28;20295;-76
2023/08/10 07:03:46;;;;;;;;;;;17.90;99.90;;;;;;5036936;28;20000;-75
2023/08/10 07:06:12;;;;;;;;;;;17.90;99.90;;;;;;5036729;28;19925;-76
2023/08/10 07:08:38;;;;;;;;;;;17.90;99.90;;;;;;5041032;28;19940;-75
2023/08/10 07:11:03;;;;;;;;;;;17.90;99.90;;;;;;5041566;28;19932;-75
2023/08/10 07:13:29;;;;;;;;;;;18.10;99.90;;;;;;5040796;28;19936;-76
2023/08/10 07:15:55;;;;;;;;;;;18.10;99.90;;;;;;5040464;28;20343;-75
2023/08/10 07:18:20;;;;;;;;;;;18.10;99.90;;;;;;5040333;28;20116;-76
2023/08/10 07:20:46;;;;;;;;;;;18.20;99.90;;;;;;5040165;28;20293;-75
2023/08/10 07:23:12;;;;;;;;;;;18.20;99.90;;;;;;5056925;28;19925;-76
2023/08/10 07:25:38;;;;;;;;;;;18.20;99.90;;;;;;5040897;28;19932;-76
2023/08/10 07:28:05;;;;;;;;;;;18.30;99.90;;;;;;5039887;28;20325;-75
2023/08/10 07:30:31;;;;;;;;;;;18.40;99.90;;;;;;5040697;28;19980;-76
2023/08/10 07:32:56;;;;;;;;;;;18.40;99.90;;;;;;5039783;28;19933;-76
2023/08/10 07:35:23;;;;;;;;;;;18.50;99.90;;;;;;5073536;28;19925;-76
2023/08/10 07:37:49;;;;;;;;;;;18.50;99.90;;;;;;5040129;28;19925;-75
2023/08/10 07:40:15;;;;;;;;;;;18.50;99.90;;;;;;5039968;28;19932;-76
2023/08/10 07:42:40;;;;;;;;;;;18.50;99.90;;;;;;5073980;28;20300;-75
2023/08/10 07:45:09;;;;;;;;;;;18.50;99.90;;;;;;5039534;28;19929;-76
2023/08/10 07:47:35;;;;;;;;;;;18.60;99.90;;;;;;5040309;28;19929;-76
2023/08/10 07:50:01;;;;;;;;;;;18.60;99.90;;;;;;5041823;28;20269;-75
2023/08/10 07:52:26;;;;;;;;;;;18.60;99.90;;;;;;5039942;28;20043;-76
2023/08/10 07:54:52;;;;;;;;;;;18.60;99.90;;;;;;5039638;28;19983;-75
2023/08/10 07:57:17;;;;;;;;;;;18.60;99.90;;;;;;5039736;28;19925;-75
2023/08/10 07:59:43;;;;;;;;;;;18.50;99.90;;;;;;5040342;28;19926;-75
2023/08/10 08:02:08;;;;;;;;;;;18.50;99.90;;;;;;5023593;28;19929;-74
2023/08/10 08:04:34;;;;;;;;;;;18.50;99.90;;;;;;5040005;28;20392;-75
2023/08/10 08:07:00;;;;;;;;;;;18.50;99.90;;;;;;5039044;28;19933;-75
2023/08/10 08:09:25;;;;;;;;;;;18.50;99.90;;;;;;5039694;28;19932;-76
2023/08/10 08:11:51;;;;;;;;;;;18.50;99.90;;;;;;5039712;28;19981;-75
2023/08/10 08:14:17;;;;;;;;;;;18.50;99.90;;;;;;5055798;28;19936;-76
2023/08/10 08:16:42;;;;;;;;;;;18.50;99.90;;;;;;5039715;28;19925;-75
2023/08/10 08:19:08;;;;;;;;;;;18.50;99.90;;;;;;5038315;28;19936;-75
2023/08/10 08:21:34;;;;;;;;;;;18.50;99.90;;;;;;5039541;28;19936;-75
2023/08/10 08:24:00;;;;;;;;;;;18.50;99.90;;;;;;5038707;28;19929;-75
2023/08/10 08:26:27;;;;;;;;;;;18.50;99.90;;;;;;5039470;28;19929;-76
2023/08/10 08:28:53;;;;;;;;;;;18.60;99.90;;;;;;5039157;28;19925;-75
2023/08/10 08:31:18;;;;;;;;;;;18.60;99.90;;;;;;5038850;28;19929;-76
2023/08/10 08:33:44;;;;;;;;;;;18.60;99.90;;;;;;5039718;28;19955;-75
2023/08/10 08:36:10;;;;;;;;;;;18.70;99.90;;;;;;5043413;28;19928;-75
2023/08/10 08:38:37;;;;;;;;;;;18.70;99.90;;;;;;5056013;28;19931;-75
2023/08/10 08:41:06;;;;;;;;;;;18.70;99.90;;;;;;5038537;28;19929;-75
2023/08/10 08:43:33;;;;;;;;;;;18.70;99.90;;;;;;5040834;28;19987;-75
2023/08/10 08:45:58;;;;;;;;;;;18.70;99.90;;;;;;5038909;28;19931;-75
2023/08/10 08:48:27;;;;;;;;;;;18.70;99.90;;;;;;5038483;28;19925;-76
2023/08/10 08:50:52;;;;;;;;;;;18.70;99.90;;;;;;5038954;28;20288;-75
2023/08/10 08:53:18;;;;;;;;;;;18.70;99.90;;;;;;5038218;28;19980;-75
2023/08/10 08:55:46;;;;;;;;;;;18.80;99.90;;;;;;5055696;28;19929;-75
2023/08/10 08:58:11;;;;;;;;;;;18.80;99.90;;;;;;5037983;28;19971;-75
2023/08/10 09:00:38;;;;;;;;;;;18.90;99.90;;;;;;5038972;28;20019;-76
2023/08/10 09:03:03;;;;;;;;;;;19.00;99.90;;;;;;5038089;28;20277;-75
2023/08/10 09:05:30;;;;;;;;;;;19.10;99.90;;;;;;5024493;28;19985;-75
2023/08/10 09:07:56;;;;;;;;;;;19.10;99.90;;;;;;5038708;28;19925;-75
2023/08/10 09:10:22;;;;;;;;;;;19.20;99.90;;;;;;5038024;28;19952;-76
2023/08/10 09:12:47;;;;;;;;;;;19.30;99.90;;;;;;5049997;28;20456;-75
2023/08/10 09:15:18;;;;;;;;;;;19.40;99.90;;;;;;5037892;28;19925;-75
2023/08/10 09:17:46;;;;;;;;;;;19.50;99.90;;;;;;5038602;28;20554;-76
2023/08/10 09:20:18;;;;;;;;;;;19.60;99.90;;;;;;5038037;28;19925;-75
2023/08/10 09:22:44;;;;;;;;;;;19.60;99.90;;;;;;5037491;28;19940;-76
2023/08/10 09:25:10;;;;;;;;;;;19.50;99.90;;;;;;5038494;28;19955;-75
2023/08/10 09:27:35;;;;;;;;;;;19.50;99.90;;;;;;5037396;28;19929;-76
2023/08/10 09:30:03;;;;;;;;;;;19.40;99.90;;;;;;5038256;28;19924;-75
2023/08/10 09:32:28;;;;;;;;;;;19.40;99.90;;;;;;5037759;28;19948;-76
2023/08/10 09:34:54;;;;;;;;;;;19.40;99.90;;;;;;5038101;28;20482;-76
2023/08/10 09:37:20;;;;;;;;;;;19.40;99.90;;;;;;5030106;28;19940;-75
2023/08/10 09:39:46;;;;;;;;;;;19.40;99.90;;;;;;5037530;28;19993;-76
2023/08/10 09:42:11;;;;;;;;;;;19.50;99.90;;;;;;5038230;28;20364;-75
2023/08/10 09:44:50;;;;;;;;;;;19.50;99.90;;;;;;5037494;28;20469;-76
2023/08/10 09:47:16;;;;;;;;;;;19.40;99.90;;;;;;5038706;28;20004;-75
2023/08/10 09:50:00;;;;;;;;;;;19.30;99.90;;;;;;5037296;28;19932;-75
2023/08/10 09:52:26;;;;;;;;;;;19.30;99.90;;;;;;5037554;28;20027;-75
2023/08/10 09:54:53;;;;;;;;;;;19.30;99.90;;;;;;5037575;28;20415;-75
2023/08/10 09:57:20;;;;;;;;;;;19.30;99.90;;;;;;5037568;28;19929;-75
2023/08/10 09:59:46;;;;;;;;;;;19.20;99.90;;;;;;5038310;28;21245;-75
2023/08/10 10:02:11;;;;;;;;;;;19.20;99.90;;;;;;5053495;28;19925;-75
2023/08/10 10:04:41;;;;;;;;;;;19.30;99.90;;;;;;5038035;28;19951;-75
2023/08/10 10:07:07;;;;;;;;;;;19.40;99.90;;;;;;5038225;28;19930;-76
2023/08/10 10:09:34;;;;;;;;;;;19.40;99.90;;;;;;5037796;28;19925;-75
2023/08/10 10:12:00;;;;;;;;;;;19.50;99.90;;;;;;5037562;28;19936;-75
2023/08/10 10:14:26;;;;;;;;;;;19.60;99.90;;;;;;5037024;28;19925;-75
2023/08/10 10:16:52;;;;;;;;;;;19.70;99.90;;;;;;5037719;28;19932;-75
2023/08/10 10:19:18;;;;;;;;;;;19.90;99.90;;;;;;5034622;28;19925;-75
2023/08/10 10:21:44;;;;;;;;;;;20.00;99.90;;;;;;5039419;28;20400;-75
2023/08/10 10:24:12;;;;;;;;;;;20.10;99.90;;;;;;5050941;28;20331;-76
2023/08/10 10:26:38;;;;;;;;;;;20.20;99.90;;;;;;5053518;28;20007;-76
2023/08/10 10:29:14;;;;;;;;;;;20.30;99.90;;;;;;5037190;28;19948;-75
2023/08/10 10:31:40;;;;;;;;;;;20.30;99.90;;;;;;5036952;28;19972;-76
2023/08/10 10:34:10;;;;;;;;;;;20.20;99.90;;;;;;5054132;28;19928;-75
2023/08/10 10:36:38;;;;;;;;;;;20.10;99.90;;;;;;5069962;28;19985;-76
2023/08/10 10:39:07;;;;;;;;;;;20.10;99.90;;;;;;5037664;28;19979;-76
2023/08/10 10:41:34;;;;;;;;;;;20.20;99.90;;;;;;5039025;28;19925;-76
2023/08/10 10:44:02;;;;;;;;;;;20.20;99.90;;;;;;5040988;28;19925;-76
2023/08/10 10:46:34;;;;;;;;;;;20.20;99.90;;;;;;5041495;28;19940;-75
2023/08/10 10:49:00;;;;;;;;;;;20.20;99.90;;;;;;5040909;28;20333;-75
2023/08/10 10:51:26;;;;;;;;;;;20.20;99.90;;;;;;5040994;28;19929;-76
2023/08/10 10:53:53;;;;;;;;;;;20.20;99.90;;;;;;5040325;28;19926;-76
2023/08/10 10:56:19;;;;;;;;;;;20.20;99.90;;;;;;5041386;28;20304;-75
2023/08/10 10:58:45;;;;;;;;;;;20.20;99.90;;;;;;5057104;28;19947;-75
2023/08/10 11:01:11;;;;;;;;;;;20.40;99.90;;;;;;5041111;28;20012;-75
2023/08/10 11:03:39;;;;;;;;;;;20.50;99.90;;;;;;5057489;28;19941;-76
2023/08/10 11:06:15;;;;;;;;;;;20.50;99.90;;;;;;5040610;28;19925;-76
2023/08/10 11:08:40;;;;;;;;;;;20.70;99.90;;;;;;5057680;28;20335;-76
2023/08/10 11:11:06;;;;;;;;;;;20.70;99.90;;;;;;5040123;28;19936;-76
2023/08/10 11:13:32;;;;;;;;;;;20.80;99.90;;;;;;5040910;28;20459;-76
2023/08/10 11:15:58;;;;;;;;;;;20.80;99.90;;;;;;5040189;28;19925;-76
2023/08/10 11:18:25;;;;;;;;;;;20.90;99.90;;;;;;5040761;28;19947;-75
2023/08/10 11:20:51;;;;;;;;;;;21.10;99.90;;;;;;5040480;28;19933;-76
2023/08/10 11:23:17;;;;;;;;;;;21.10;99.90;;;;;;5040314;28;19925;-76
2023/08/10 11:25:49;;;;;;;;;;;21.10;99.90;;;;;;5041065;28;19975;-75
2023/08/10 11:28:16;;;;;;;;;;;21.20;99.90;;;;;;5039953;28;20237;-76
2023/08/10 11:30:43;;;;;;;;;;;21.30;99.90;;;;;;5040691;28;19929;-76
2023/08/10 11:33:08;;;;;;;;;;;21.40;99.90;;;;;;5040175;28;19932;-76
2023/08/10 11:35:34;;;;;;;;;;;21.50;99.90;;;;;;5057023;28;19925;-76
2023/08/10 11:38:00;;;;;;;;;;;21.70;99.90;;;;;;5040331;28;19925;-76
2023/08/10 11:40:25;;;;;;;;;;;21.90;99.90;;;;;;5039741;28;20024;-76
2023/08/10 11:43:10;;;;;;;;;;;22.00;99.90;;;;;;5040262;28;19929;-75
2023/08/10 11:45:36;;;;;;;;;;;22.10;99.90;;;;;;5039457;28;19925;-76
2023/08/10 11:48:12;;;;;;;;;;;22.30;99.90;;;;;;5039994;28;19955;-76
2023/08/10 11:50:41;;;;;;;;;;;22.50;99.90;;;;;;5056439;28;19937;-76
2023/08/10 11:53:11;;;;;;;;;;;22.70;99.90;;;;;;5021320;28;19933;-76
2023/08/10 11:55:43;;;;;;;;;;;22.90;99.90;;;;;;5040119;28;19968;-76
2023/08/10 11:58:10;;;;;;;;;;;23.00;99.90;;;;;;5039067;28;19925;-76
2023/08/10 12:00:38;;;;;;;;;;;23.00;99.90;;;;;;5040325;28;19956;-76
2023/08/10 12:03:08;;;;;;;;;;;23.10;99.90;;;;;;5039599;28;19929;-75
2023/08/10 12:05:38;;;;;;;;;;;23.20;99.90;;;;;;5023088;28;19925;-76
2023/08/10 12:08:05;;;;;;;;;;;23.40;99.90;;;;;;5039856;28;19963;-76
2023/08/10 12:10:41;;;;;;;;;;;23.60;99.90;;;;;;5039012;28;20312;-76
2023/08/10 12:13:08;;;;;;;;;;;23.60;99.90;;;;;;5039900;28;19972;-76
2023/08/10 12:15:37;;;;;;;;;;;23.70;99.90;;;;;;5039163;28;19924;-75
2023/08/10 12:18:04;;;;;;;;;;;23.90;99.90;;;;;;5058905;28;19929;-75
2023/08/10 12:20:30;;;;;;;;;;;24.10;99.90;;;;;;5039705;28;20438;-75
2023/08/10 12:22:55;;;;;;;;;;;24.20;99.90;;;;;;5038756;28;19985;-78
2023/08/10 12:25:21;;;;;;;;;;;24.20;99.90;;;;;;5039886;28;19961;-76
2023/08/10 12:27:47;;;;;;;;;;;24.20;99.90;;;;;;5038352;28;19929;-76
2023/08/10 12:30:12;;;;;;;;;;;24.10;99.90;;;;;;5039589;28;19931;-76
2023/08/10 12:32:38;;;;;;;;;;;24.00;99.90;;;;;;5038535;28;19925;-76
2023/08/10 12:35:04;;;;;;;;;;;24.00;99.90;;;;;;5039265;28;19926;-76
2023/08/10 12:37:29;;;;;;;;;;;24.00;99.90;;;;;;5030523;28;19929;-76
2023/08/10 12:39:56;;;;;;;;;;;24.00;99.90;;;;;;5038400;28;19992;-76
2023/08/10 12:42:21;;;;;;;;;;;24.00;99.90;;;;;;5039587;28;19971;-76
2023/08/10 12:44:47;;;;;;;;;;;23.90;99.90;;;;;;5038457;28;19929;-76
2023/08/10 12:47:13;;;;;;;;;;;23.90;99.90;;;;;;5039247;28;19997;-76
2023/08/10 12:49:39;;;;;;;;;;;23.90;99.90;;;;;;5038186;28;19957;-76
2023/08/10 12:52:05;;;;;;;;;;;23.80;99.90;;;;;;5055070;28;19933;-77
2023/08/10 12:54:31;;;;;;;;;;;23.60;99.90;;;;;;5038696;28;19932;-76
2023/08/10 12:56:56;;;;;;;;;;;23.40;99.90;;;;;;5038175;28;19925;-77
2023/08/10 12:59:22;;;;;;;;;;;23.20;99.90;;;;;;5039185;28;19929;-76
2023/08/10 13:01:49;;;;;;;;;;;23.20;99.90;;;;;;5037900;28;20289;-77
2023/08/10 13:04:15;;;;;;;;;;;23.00;99.90;;;;;;5038824;28;19958;-77
2023/08/10 13:06:40;;;;;;;;;;;22.90;99.90;;;;;;5037866;28;20483;-76
2023/08/10 13:09:06;;;;;;;;;;;22.90;99.90;;;;;;5038982;28;19980;-77
2023/08/10 13:11:32;;;;;;;;;;;22.90;99.90;;;;;;5038241;28;19929;-76
2023/08/10 13:13:57;;;;;;;;;;;22.90;99.90;;;;;;5038075;28;19933;-78
2023/08/10 13:16:23;;;;;;;;;;;22.80;99.90;;;;;;5038915;28;19986;-77
2023/08/10 13:18:49;;;;;;;;;;;22.80;99.90;;;;;;5054414;28;19935;-77
2023/08/10 13:21:14;;;;;;;;;;;22.70;99.90;;;;;;5040817;28;19925;-77
2023/08/10 13:23:40;;;;;;;;;;;22.70;99.90;;;;;;5071180;28;20430;-76
2023/08/10 13:26:05;;;;;;;;;;;22.70;99.90;;;;;;5038231;28;19975;-77
2023/08/10 13:28:31;;;;;;;;;;;22.60;99.90;;;;;;5054630;28;19984;-76
2023/08/10 13:30:56;;;;;;;;;;;22.60;99.90;;;;;;5037711;28;19947;-77
2023/08/10 13:33:22;;;;;;;;;;;22.70;99.90;;;;;;5071749;28;19987;-77
2023/08/10 13:35:47;;;;;;;;;;;22.90;99.90;;;;;;5037950;28;19933;-76
2023/08/10 13:38:13;;;;;;;;;;;23.00;99.90;;;;;;5038312;28;19976;-76
2023/08/10 13:40:38;;;;;;;;;;;23.10;99.90;;;;;;5037598;28;19929;-76
2023/08/10 13:43:04;;;;;;;;;;;23.20;99.90;;;;;;5037935;28;19967;-77
2023/08/10 13:45:30;;;;;;;;;;;23.30;99.90;;;;;;5037649;28;19932;-76
2023/08/10 13:47:56;;;;;;;;;;;23.40;99.90;;;;;;5037620;28;19932;-77
2023/08/10 13:50:22;;;;;;;;;;;23.40;99.90;;;;;;5037595;28;19925;-76
2023/08/10 13:52:47;;;;;;;;;;;23.30;99.90;;;;;;5037167;28;19933;-77
2023/08/10 13:55:13;;;;;;;;;;;23.20;99.90;;;;;;5054628;28;19929;-76
2023/08/10 13:57:39;;;;;;;;;;;23.20;99.90;;;;;;5020752;28;19968;-76
2023/08/10 14:00:05;;;;;;;;;;;23.20;99.90;;;;;;5054832;28;19929;-76
2023/08/10 14:02:31;;;;;;;;;;;23.20;99.90;;;;;;5037007;28;19951;-76
2023/08/10 14:04:56;;;;;;;;;;;23.10;99.90;;;;;;5037739;28;19984;-77
2023/08/10 14:07:22;;;;;;;;;;;23.00;99.90;;;;;;5037634;28;19972;-76
2023/08/10 14:09:48;;;;;;;;;;;23.10;99.90;;;;;;5037541;28;19933;-76